Time;durP1;ratioP1;P1;durP2;ratioP2;P2;SDS_P1;SDS_P2;PMS_P1;PMS_P2;Temp;Humidity;BMP_temperature;BMP_pressure;BME280_temperature;BME280_humidity;BME280_pressure;Samples;Min_cycle;Max_cycle;Signal;HPM_P1;HPM_P2
2021/04/15 00:01:41;;;;;;;8.15;3.03;;;;;;;4.99;89.96;101965.25;5184748;28;20029;-78
2021/04/15 00:04:12;;;;;;;7.03;3.33;;;;;;;5.05;89.53;101967.03;5186668;28;20596;-78
2021/04/15 00:06:42;;;;;;;6.90;2.90;;;;;;;4.94;89.44;101956.56;5187293;28;20120;-77
2021/04/15 00:09:18;;;;;;;6.82;2.83;;;;;;;4.85;88.69;101966.88;5177505;28;20065;-78
2021/04/15 00:11:50;;;;;;;7.18;3.10;;;;;;;4.66;90.29;101964.06;5184063;28;20034;-77
2021/04/15 00:14:23;;;;;;;8.10;3.65;;;;;;;4.47;92.08;101959.53;5184232;28;20030;-79
2021/04/15 00:16:53;;;;;;;7.50;3.22;;;;;;;4.59;91.62;101962.25;5173703;28;20030;-79
2021/04/15 00:19:23;;;;;;;7.10;2.92;;;;;;;4.51;90.96;101969.06;5176936;28;20036;-78
2021/04/15 00:21:53;;;;;;;8.35;3.35;;;;;;;4.50;90.80;101963.00;5176850;28;20028;-78
2021/04/15 00:24:24;;;;;;;6.75;3.20;;;;;;;4.47;91.06;101967.31;5180418;28;20026;-78
2021/04/15 00:26:54;;;;;;;6.43;3.30;;;;;;;4.37;91.87;101966.34;5160562;28;20084;-78
2021/04/15 00:29:24;;;;;;;9.10;4.85;;;;;;;4.35;91.99;101960.28;5176647;28;20030;-78
2021/04/15 00:31:54;;;;;;;7.80;3.65;;;;;;;4.23;91.91;101973.06;5173096;28;20427;-78
2021/04/15 00:34:25;;;;;;;7.72;3.92;;;;;;;4.13;92.76;101975.50;5175843;28;20037;-79
2021/04/15 00:36:55;;;;;;;7.55;3.70;;;;;;;4.22;92.22;101967.84;5172932;28;20084;-78
2021/04/15 00:39:25;;;;;;;8.68;4.13;;;;;;;4.35;91.03;101967.16;5176756;28;20029;-78
2021/04/15 00:41:56;;;;;;;7.82;3.47;;;;;;;4.48;91.94;101964.72;5156767;28;20019;-78
2021/04/15 00:44:26;;;;;;;11.30;4.40;;;;;;;4.41;91.19;101968.09;5176060;28;20057;-79
2021/04/15 00:47:21;;;;;;;8.02;4.10;;;;;;;4.38;91.75;101975.84;5175912;28;20050;-79
2021/04/15 00:49:55;;;;;;;8.75;3.75;;;;;;;4.22;91.39;101971.31;5178325;28;20112;-78
2021/04/15 00:52:32;;;;;;;10.45;4.28;;;;;;;4.09;92.15;101960.81;5178808;28;20630;-78
2021/04/15 00:55:11;;;;;;;13.25;4.57;;;;;;;3.84;92.73;101967.38;5169214;28;20388;-78
2021/04/15 00:57:41;;;;;;;10.50;4.90;;;;;;;3.83;94.34;101970.81;5164007;28;20677;-77
2021/04/15 01:00:12;;;;;;;10.18;4.60;;;;;;;3.85;94.63;101969.13;5171726;28;20030;-77
2021/04/15 01:02:43;;;;;;;8.57;4.45;;;;;;;3.89;93.77;101964.84;5176709;28;20053;-78
2021/04/15 01:05:19;;;;;;;10.68;4.15;;;;;;;3.79;93.93;101971.59;5174324;28;20037;-78
2021/04/15 01:07:50;;;;;;;9.90;4.82;;;;;;;3.77;94.26;101970.72;5180835;28;20034;-78
2021/04/15 01:10:22;;;;;;;9.25;4.93;;;;;;;4.04;93.91;101971.09;5179765;28;20025;-78
2021/04/15 01:13:11;;;;;;;12.68;5.80;;;;;;;4.10;93.32;101958.22;5173864;28;20053;-77
2021/04/15 01:16:09;;;;;;;14.60;7.10;;;;;;;4.00;93.87;101971.03;5174930;28;20026;-78
2021/04/15 01:18:57;;;;;;;9.00;4.63;;;;;;;4.12;94.23;101972.03;5180726;28;20034;-77
2021/04/15 01:21:59;;;;;;;8.48;4.57;;;;;;;4.10;94.09;101978.91;5173432;28;20069;-78
2021/04/15 01:24:47;;;;;;;9.05;4.32;;;;;;;3.96;94.56;101969.25;5173293;28;20729;-78
2021/04/15 01:27:26;;;;;;;7.93;4.15;;;;;;;3.95;95.07;101965.78;5184689;28;20041;-78
2021/04/15 01:30:19;;;;;;;12.93;6.68;;;;;;;3.98;94.49;101964.97;5174028;28;20076;-78
2021/04/15 01:32:52;;;;;;;12.57;5.95;;;;;;;3.77;94.88;101965.53;5177758;28;20033;-78
2021/04/15 01:35:30;;;;;;;11.05;5.28;;;;;;;3.70;96.24;101973.19;5188273;28;20030;-78
2021/04/15 01:38:11;;;;;;;8.50;4.35;;;;;;;3.74;95.74;101968.09;5186169;28;20052;-78
2021/04/15 01:40:53;;;;;;;8.93;4.50;;;;;;;3.98;94.93;101967.56;5182469;28;20109;-79
2021/04/15 01:43:38;;;;;;;9.45;4.35;;;;;;;4.01;94.25;101972.75;5186329;28;20097;-79
2021/04/15 01:46:09;;;;;;;8.35;3.95;;;;;;;3.92;94.48;101973.50;5188904;28;20087;-78
2021/04/15 01:48:51;;;;;;;6.72;3.13;;;;;;;3.85;92.42;101978.56;5167992;28;20038;-78
2021/04/15 01:51:27;;;;;;;6.53;3.08;;;;;;;3.62;92.42;101975.66;5175020;28;20155;-78
2021/04/15 01:54:08;;;;;;;5.45;2.90;;;;;;;3.58;93.14;101979.03;5179948;28;20030;-79
2021/04/15 01:56:43;;;;;;;5.05;2.88;;;;;;;3.45;92.89;101972.78;5178188;28;20100;-77
2021/04/15 01:59:35;;;;;;;6.45;2.92;;;;;;;3.14;93.03;101974.03;5178928;28;20026;-79
2021/04/15 02:02:17;;;;;;;5.32;2.90;;;;;;;2.96;94.13;101984.03;5176213;28;20034;-78
2021/04/15 02:04:57;;;;;;;4.75;3.08;;;;;;;2.97;95.29;101984.91;5174447;28;20272;-78
2021/04/15 02:07:31;;;;;;;7.63;3.10;;;;;;;2.94;94.92;101990.00;5174766;28;20117;-78
2021/04/15 02:10:06;;;;;;;5.53;3.27;;;;;;;2.70;94.75;101992.16;5172481;28;20065;-79
2021/04/15 02:12:40;;;;;;;5.53;3.10;;;;;;;2.60;95.40;101988.53;5176325;28;20045;-78
2021/04/15 02:15:32;;;;;;;4.82;3.20;;;;;;;2.54;97.02;101997.88;5178909;28;20276;-79
2021/04/15 02:18:08;;;;;;;5.82;3.20;;;;;;;2.45;97.40;101995.09;5179033;28;20018;-78
2021/04/15 02:20:38;;;;;;;8.55;3.30;;;;;;;2.38;98.74;101990.66;5180776;28;20037;-79
2021/04/15 02:23:19;;;;;;;5.97;3.60;;;;;;;2.41;98.87;101990.72;5180976;28;20377;-79
2021/04/15 02:25:54;;;;;;;7.05;3.50;;;;;;;2.50;98.50;101991.78;5180028;28;20050;-78
2021/04/15 02:28:35;;;;;;;9.60;4.78;;;;;;;2.47;98.29;101983.13;5178316;28;20033;-78
2021/04/15 02:31:16;;;;;;;6.72;3.90;;;;;;;2.31;98.55;101986.25;5175808;28;20033;-77
2021/04/15 02:34:00;;;;;;;7.32;4.35;;;;;;;2.28;99.69;101983.56;5174244;28;20023;-78
2021/04/15 02:36:42;;;;;;;8.32;4.57;;;;;;;2.11;99.90;101990.97;5174688;28;20062;-79
2021/04/15 02:39:20;;;;;;;8.07;4.93;;;;;;;2.13;100.00;101988.44;5165877;28;20026;-78
2021/04/15 02:41:53;;;;;;;9.23;4.60;;;;;;;2.03;100.00;101986.50;5173788;28;20022;-78
2021/04/15 02:44:29;;;;;;;8.77;4.72;;;;;;;1.98;99.99;101990.69;5177081;28;20064;-78
2021/04/15 02:47:07;;;;;;;9.07;4.70;;;;;;;1.95;100.00;101996.66;5173133;28;20030;-77
2021/04/15 02:49:38;;;;;;;9.32;5.00;;;;;;;1.90;100.00;101984.50;5178055;28;20026;-78
2021/04/15 02:52:18;;;;;;;11.40;4.55;;;;;;;1.67;100.00;101985.69;5175216;28;20655;-77
2021/04/15 02:54:53;;;;;;;8.30;5.07;;;;;;;1.81;100.00;101984.31;5178431;28;20021;-79
2021/04/15 02:57:46;;;;;;;7.90;4.80;;;;;;;1.67;100.00;101980.53;5175902;28;20029;-78
2021/04/15 03:00:21;;;;;;;7.60;4.18;;;;;;;1.52;100.00;101982.78;5187545;28;20273;-78
2021/04/15 03:03:04;;;;;;;8.68;4.72;;;;;;;1.64;100.00;101983.06;5178205;28;20026;-77
2021/04/15 03:05:41;;;;;;;9.48;4.53;;;;;;;1.68;100.00;101987.44;5174194;28;20081;-78
2021/04/15 03:08:16;;;;;;;7.15;3.97;;;;;;;1.54;100.00;101993.97;5172881;28;20045;-78
2021/04/15 03:10:53;;;;;;;8.13;4.03;;;;;;;1.60;100.00;101988.94;5175944;28;20037;-77
2021/04/15 03:13:32;;;;;;;7.07;3.88;;;;;;;1.78;97.83;101999.66;5154071;28;20238;-78
2021/04/15 03:16:05;;;;;;;8.25;3.70;;;;;;;1.57;96.40;101998.34;5174413;28;20125;-78
2021/04/15 03:18:43;;;;;;;10.80;5.35;;;;;;;1.58;97.02;102007.81;5172954;28;20030;-78
2021/04/15 03:21:41;;;;;;;8.98;4.55;;;;;;;1.53;96.95;102005.09;5177777;28;20109;-78
2021/04/15 03:24:18;;;;;;;9.48;4.60;;;;;;;1.31;97.25;102004.56;5182284;28;20487;-79
2021/04/15 03:27:18;;;;;;;11.60;5.75;;;;;;;1.13;98.55;101999.84;5171298;28;20061;-77
2021/04/15 03:29:54;;;;;;;11.95;5.95;;;;;;;1.12;99.88;102003.25;5169923;28;20053;-77
2021/04/15 03:32:36;;;;;;;14.63;6.65;;;;;;;1.24;100.00;102006.09;5171358;28;20546;-77
2021/04/15 03:35:11;;;;;;;14.43;7.47;;;;;;;1.24;100.00;101998.38;5172776;28;20034;-78
2021/04/15 03:37:48;;;;;;;16.77;7.78;;;;;;;1.20;99.54;102000.88;5170803;28;20037;-78
2021/04/15 03:40:22;;;;;;;12.93;6.35;;;;;;;1.25;99.03;102002.69;5169274;28;20366;-79
2021/04/15 03:43:14;;;;;;;12.73;5.57;;;;;;;1.15;100.00;102015.31;5168948;28;20026;-79
2021/04/15 03:45:50;;;;;;;7.25;3.92;;;;;;;1.24;99.29;102007.81;5169770;28;20049;-77
2021/04/15 03:48:26;;;;;;;7.38;4.15;;;;;;;1.14;99.97;102006.72;5172350;28;20149;-78
2021/04/15 03:51:04;;;;;;;6.63;4.20;;;;;;;1.12;99.31;102013.53;5169756;28;20030;-77
2021/04/15 03:53:49;;;;;;;6.38;3.90;;;;;;;0.96;100.00;102008.84;5176014;28;20041;-77
2021/04/15 03:56:50;;;;;;;6.95;4.70;;;;;;;0.81;100.00;102013.59;5175105;28;20542;-78
2021/04/15 03:59:33;;;;;;;7.68;4.25;;;;;;;1.01;100.00;102016.66;5166911;28;20560;-77
2021/04/15 04:02:09;;;;;;;7.68;4.45;;;;;;;0.99;100.00;102014.06;5163284;28;20104;-77
2021/04/15 04:04:52;;;;;;;7.10;4.07;;;;;;;1.01;100.00;102017.53;5166745;28;20088;-77
2021/04/15 04:07:29;;;;;;;7.60;4.75;;;;;;;1.00;100.00;102018.38;5168078;28;20034;-78
2021/04/15 04:10:06;;;;;;;7.20;4.78;;;;;;;0.94;100.00;102020.81;5171351;28;20036;-77
2021/04/15 04:12:47;;;;;;;8.10;4.68;;;;;;;0.96;99.74;102021.72;5171040;28;20034;-78
2021/04/15 04:15:41;;;;;;;7.30;4.60;;;;;;;1.05;99.53;102021.94;5169763;28;20030;-78
2021/04/15 04:18:18;;;;;;;9.02;4.90;;;;;;;0.96;98.17;102021.72;5172777;28;20026;-77
2021/04/15 04:20:54;;;;;;;9.93;5.40;;;;;;;1.07;98.09;102022.84;5171042;28;20419;-78
2021/04/15 04:23:42;;;;;;;11.60;6.30;;;;;;;0.92;99.42;102024.16;5174920;28;20021;-78
2021/04/15 04:26:36;;;;;;;9.82;4.63;;;;;;;0.95;99.95;102034.53;5174570;28;20030;-78
2021/04/15 04:29:18;;;;;;;10.32;3.70;;;;;;;1.01;99.03;102025.25;5173277;28;20067;-79
2021/04/15 04:31:52;;;;;;;6.57;3.58;;;;;;;1.08;97.83;102023.72;5163919;28;20034;-77
2021/04/15 04:34:24;;;;;;;6.05;4.10;;;;;;;1.05;98.40;102027.06;5172011;28;20496;-79
2021/04/15 04:36:56;;;;;;;8.25;4.55;;;;;;;1.19;99.13;102041.16;5175293;28;20030;-79
2021/04/15 04:39:28;;;;;;;9.82;5.18;;;;;;;1.03;99.59;102033.88;5182909;28;20030;-78
2021/04/15 04:42:09;;;;;;;6.70;4.50;;;;;;;1.11;98.90;102031.50;5178663;28;20029;-78
2021/04/15 04:44:48;;;;;;;8.07;5.25;;;;;;;0.95;100.00;102039.66;5176827;28;20673;-78
2021/04/15 04:47:50;;;;;;;10.20;5.20;;;;;;;0.91;100.00;102043.84;5176827;28;20028;-80
2021/04/15 04:50:23;;;;;;;11.23;5.70;;;;;;;0.72;100.00;102049.34;5172462;28;20552;-80
2021/04/15 04:53:04;;;;;;;8.30;5.20;;;;;;;0.74;100.00;102039.94;5177142;28;20360;-82
2021/04/15 04:55:42;;;;;;;10.95;5.18;;;;;;;0.69;100.00;102046.69;5187118;28;20109;-81
2021/04/15 04:58:16;;;;;;;9.32;5.32;;;;;;;0.77;100.00;102045.22;5180723;28;20040;-81
2021/04/15 05:00:50;;;;;;;11.10;5.20;;;;;;;1.15;100.00;102047.09;5160248;28;20026;-82
2021/04/15 05:03:23;;;;;;;9.27;5.53;;;;;;;1.38;98.74;102047.66;5177234;28;20078;-81
2021/04/15 05:06:04;;;;;;;8.00;4.70;;;;;;;1.42;97.04;102055.47;5180435;28;20049;-81
2021/04/15 05:08:40;;;;;;;9.63;5.60;;;;;;;1.30;98.25;102052.63;5178453;28;20034;-81
2021/04/15 05:11:10;;;;;;;10.48;6.22;;;;;;;1.32;99.13;102061.25;5176929;28;20045;-81
2021/04/15 05:13:42;;;;;;;9.90;5.78;;;;;;;1.63;98.96;102061.19;5180294;28;20025;-81
2021/04/15 05:16:12;;;;;;;9.73;5.97;;;;;;;1.59;96.58;102054.19;5183201;28;20021;-81
2021/04/15 05:18:44;;;;;;;10.27;5.65;;;;;;;1.51;97.07;102066.03;5184260;28;20114;-82
2021/04/15 05:21:19;;;;;;;10.32;6.30;;;;;;;1.29;98.17;102058.59;5178371;28;20026;-82
2021/04/15 05:23:56;;;;;;;10.20;6.00;;;;;;;1.37;99.65;102069.97;5178393;28;20025;-82
2021/04/15 05:26:32;;;;;;;7.75;4.75;;;;;;;1.29;99.21;102068.91;5172051;28;20026;-81
2021/04/15 05:29:05;;;;;;;8.48;5.53;;;;;;;1.42;99.16;102076.09;5181662;28;20030;-81
2021/04/15 05:31:42;;;;;;;5.95;4.20;;;;;;;2.14;97.20;102075.28;5155787;28;20064;-81
2021/04/15 05:34:20;;;;;;;8.52;5.60;;;;;;;2.80;93.44;102074.97;5176239;28;20392;-82
2021/04/15 05:36:54;;;;;;;13.82;8.05;;;;;;;2.95;90.42;102076.94;5175498;28;20056;-82
2021/04/15 05:39:25;;;;;;;13.90;7.25;;;;;;;3.71;89.24;102073.16;5177772;28;20436;-81
2021/04/15 05:42:21;;;;;;;10.15;6.20;;;;;;;4.61;84.87;102077.91;5174921;28;20714;-82
2021/04/15 05:45:21;;;;;;;14.40;6.22;;;;;;;4.52;84.31;102077.81;5171194;28;20041;-82
2021/04/15 05:47:54;;;;;;;8.40;5.38;;;;;;;3.58;83.15;102079.84;5167457;28;20500;-81
2021/04/15 05:50:31;;;;;;;8.82;6.15;;;;;;;3.72;87.48;102091.28;5172800;28;20037;-81
2021/04/15 05:53:13;;;;;;;10.60;6.82;;;;;;;3.52;88.11;102096.09;5173931;28;20500;-81
2021/04/15 05:55:50;;;;;;;14.55;6.45;;;;;;;2.61;94.67;102093.50;5174665;28;20480;-82
2021/04/15 05:58:30;;;;;;;15.20;9.10;;;;;;;3.27;92.64;102091.34;5173261;28;20033;-81
2021/04/15 06:01:17;;;;;;;13.20;7.47;;;;;;;2.44;97.15;102093.97;5156339;28;20030;-82
2021/04/15 06:03:57;;;;;;;13.85;8.10;;;;;;;2.00;99.66;102097.28;5182047;28;20542;-81
2021/04/15 06:06:39;;;;;;;15.32;8.13;;;;;;;2.38;98.89;102099.00;5172647;28;20038;-82
2021/04/15 06:09:10;;;;;;;15.52;8.43;;;;;;;2.51;98.78;102094.13;5172327;28;20026;-82
2021/04/15 06:11:55;;;;;;;16.42;8.82;;;;;;;2.78;99.17;102094.72;5172850;28;20034;-82
2021/04/15 06:14:42;;;;;;;19.98;11.40;;;;;;;3.42;96.00;102094.19;5171618;28;20652;-82
2021/04/15 06:17:30;;;;;;;19.58;9.95;;;;;;;4.34;92.79;102095.69;5171169;28;20030;-81
2021/04/15 06:20:09;;;;;;;23.48;14.52;;;;;;;4.62;89.51;102097.78;5171926;28;20026;-82
2021/04/15 06:22:52;;;;;;;16.58;8.63;;;;;;;4.79;87.33;102096.28;5176143;28;20041;-82
2021/04/15 06:25:29;;;;;;;15.02;7.25;;;;;;;4.93;86.14;102099.00;5168992;28;20104;-82
2021/04/15 06:28:09;;;;;;;14.70;7.95;;;;;;;4.56;87.44;102102.00;5178819;28;20057;-82
2021/04/15 06:30:58;;;;;;;16.50;7.00;;;;;;;4.13;88.37;102103.13;5181614;28;20053;-82
2021/04/15 06:33:29;;;;;;;14.93;6.22;;;;;;;5.13;85.62;102089.75;5171521;28;20058;-82
2021/04/15 06:36:00;;;;;;;16.55;7.97;;;;;;;5.47;83.86;102088.38;5172641;28;20058;-84
2021/04/15 06:38:42;;;;;;;16.88;6.95;;;;;;;6.04;81.28;102085.41;5175111;28;20117;-83
2021/04/15 06:41:38;;;;;;;11.50;6.35;;;;;;;6.17;80.26;102088.09;5174384;28;20029;-83
2021/04/15 06:44:21;;;;;;;14.23;5.63;;;;;;;7.18;74.85;102085.94;5171242;28;20029;-83
2021/04/15 06:47:13;;;;;;;15.60;5.18;;;;;;;7.18;74.55;102081.63;5176524;28;20018;-83
2021/04/15 06:50:01;;;;;;;13.13;5.07;;;;;;;7.38;74.07;102082.53;5163693;28;20045;-83
2021/04/15 06:52:53;;;;;;;11.23;6.05;;;;;;;9.07;69.38;102071.75;5167741;28;20638;-83
2021/04/15 06:55:39;;;;;;;12.23;5.50;;;;;;;10.30;64.52;102078.63;5172627;28;20029;-83
2021/04/15 06:58:17;;;;;;;10.63;5.57;;;;;;;8.59;69.53;102082.41;5175133;28;20026;-84
2021/04/15 07:01:15;;;;;;;12.88;5.93;;;;;;;8.81;69.67;102078.88;5174231;28;20030;-81
2021/04/15 07:03:54;;;;;;;10.25;5.50;;;;;;;8.85;67.50;102074.47;5169146;28;20038;-81
2021/04/15 07:06:33;;;;;;;13.15;5.32;;;;;;;8.71;68.35;102074.56;5175778;28;20401;-81
2021/04/15 07:09:30;;;;;;;14.82;5.93;;;;;;;7.92;69.22;102080.81;5171459;28;20034;-80
2021/04/15 07:12:10;;;;;;;10.75;5.40;;;;;;;8.14;69.33;102081.63;5154948;28;20065;-81
2021/04/15 07:14:59;;;;;;;9.43;5.30;;;;;;;7.59;72.69;102080.81;5173670;28;20034;-79
2021/04/15 07:17:49;;;;;;;13.57;5.93;;;;;;;7.32;73.23;102080.78;5169887;28;20034;-79
2021/04/15 07:20:49;;;;;;;14.35;7.18;;;;;;;7.42;73.13;102077.34;5173611;28;20397;-80
2021/04/15 07:23:43;;;;;;;13.73;5.30;;;;;;;7.40;73.21;102081.66;5178467;28;20097;-80
2021/04/15 07:26:30;;;;;;;13.70;5.18;;;;;;;6.36;75.77;102083.88;5180526;28;20033;-79
2021/04/15 07:29:22;;;;;;;11.40;4.50;;;;;;;6.86;74.18;102087.56;5171731;28;20065;-79
2021/04/15 07:32:11;;;;;;;8.77;4.60;;;;;;;7.12;73.33;102085.94;5172962;28;20033;-79
2021/04/15 07:34:59;;;;;;;13.15;4.50;;;;;;;6.76;73.54;102091.00;5175542;28;20022;-80
2021/04/15 07:37:44;;;;;;;11.65;4.80;;;;;;;7.10;72.63;102093.72;5170823;28;20117;-80
2021/04/15 07:40:18;;;;;;;12.48;5.15;;;;;;;8.14;70.70;102082.50;5170715;28;20507;-79
2021/04/15 07:42:53;;;;;;;10.32;4.95;;;;;;;8.57;67.05;102091.97;5172725;28;20033;-79
2021/04/15 07:45:41;;;;;;;;;;;;;;;9.12;64.74;102082.19;5170292;28;20438;-81
2021/04/15 07:48:30;;;;;;;13.70;6.50;;;;;;;10.06;64.35;102081.50;5173466;28;19921;-81
2021/04/15 07:51:28;;;;;;;14.48;6.85;;;;;;;10.32;63.11;102079.50;5176407;28;20037;-81
2021/04/15 07:54:43;;;;;;;12.95;5.35;;;;;;;11.16;60.16;102074.94;5173247;28;20031;-80
2021/04/15 07:57:50;;;;;;;8.48;3.80;;;;;;;10.06;60.77;102078.88;5182791;28;20034;-81
2021/04/15 08:00:30;;;;;;;;;;;;;;;11.54;59.72;102070.00;5175979;28;20034;-81
2021/04/15 08:03:06;;;;;;;11.77;3.92;;;;;;;11.68;58.35;102070.69;5181216;28;19925;-82
2021/04/15 08:05:55;;;;;;;11.88;4.25;;;;;;;11.94;57.50;102073.72;5186729;28;20630;-82
2021/04/15 08:08:28;;;;;;;17.38;5.70;;;;;;;12.31;57.34;102079.19;5174927;28;20030;-81
2021/04/15 08:11:36;;;;;;;9.80;2.83;;;;;;;11.96;55.80;102085.03;5165334;28;20030;-82
2021/04/15 08:14:34;;;;;;;6.85;2.55;;;;;;;10.73;56.40;102092.97;5176595;28;20022;-83
2021/04/15 08:17:32;;;;;;;7.10;2.50;;;;;;;11.70;55.35;102088.97;5173355;28;20891;-81
2021/04/15 08:20:30;;;;;;;9.05;2.50;;;;;;;11.97;54.90;102089.38;5174513;28;20129;-82
2021/04/15 08:23:19;;;;;;;7.70;2.08;;;;;;;12.20;53.86;102082.00;5183465;28;20025;-81
2021/04/15 08:26:11;;;;;;;8.07;2.63;;;;;;;12.09;54.54;102078.69;5184684;28;20022;-81
2021/04/15 08:29:03;;;;;;;6.30;2.35;;;;;;;12.33;55.12;102083.47;5183621;28;20029;-81
2021/04/15 08:31:51;;;;;;;6.78;2.40;;;;;;;11.53;54.40;102081.38;5185307;28;20515;-80
2021/04/15 08:34:33;;;;;;;7.20;2.88;;;;;;;13.12;51.64;102070.53;5172982;28;20065;-82
2021/04/15 08:37:27;;;;;;;7.60;2.20;;;;;;;12.20;51.94;102074.16;5175990;28;20033;-81
2021/04/15 08:40:03;;;;;;;6.13;2.53;;;;;;;12.82;51.99;102072.91;5178160;28;20033;-82
2021/04/15 08:42:55;;;;;;;5.78;1.80;;;;;;;12.87;50.23;102076.28;5172399;28;20364;-81
2021/04/15 08:45:38;;;;;;;7.13;1.95;;;;;;;11.60;52.80;102077.78;5170260;28;20113;-81
2021/04/15 08:48:45;;;;;;;9.68;2.30;;;;;;;12.10;53.84;102074.34;5169607;28;20026;-80
2021/04/15 08:51:53;;;;;;;10.20;2.10;;;;;;;12.87;52.73;102069.31;5169144;28;20053;-82
2021/04/15 08:54:42;;;;;;;6.93;2.15;;;;;;;10.78;55.93;102078.94;5179722;28;20026;-81
2021/04/15 08:57:29;;;;;;;6.30;2.35;;;;;;;11.67;54.14;102068.97;5167687;28;20107;-80
2021/04/15 09:00:16;;;;;;;7.85;2.40;;;;;;;11.54;53.85;102077.84;5167786;28;20034;-80
2021/04/15 09:03:22;;;;;;;4.18;1.63;;;;;;;11.59;55.88;102076.06;5179276;28;20022;-82
2021/04/15 09:05:58;;;;;;;6.85;2.42;;;;;;;10.87;57.00;102076.19;5172721;28;20416;-82
2021/04/15 09:08:40;;;;;;;7.35;2.30;;;;;;;11.35;55.11;102068.56;5171604;28;20488;-81
2021/04/15 09:11:15;;;;;;;8.15;2.60;;;;;;;11.70;55.47;102073.25;5172231;28;20030;-79
2021/04/15 09:14:16;;;;;;;6.53;1.85;;;;;;;11.27;53.32;102067.78;5174273;28;20022;-81
2021/04/15 09:16:57;;;;;;;7.75;2.35;;;;;;;12.40;52.28;102064.13;5175338;28;20129;-81
2021/04/15 09:20:05;;;;;;;4.95;2.00;;;;;;;11.48;51.90;102070.09;5165415;28;20632;-81
2021/04/15 09:22:57;;;;;;;5.53;2.20;;;;;;;12.30;51.53;102065.19;5175832;28;20446;-81
2021/04/15 09:25:35;;;;;;;6.07;2.28;;;;;;;12.07;50.82;102059.53;5167386;28;20070;-82
2021/04/15 09:28:32;;;;;;;5.55;2.20;;;;;;;11.49;52.03;102066.59;5176143;28;20030;-81
2021/04/15 09:31:25;;;;;;;5.72;2.10;;;;;;;11.76;50.99;102053.06;5178368;28;20042;-80
2021/04/15 09:34:28;;;;;;;6.00;2.55;;;;;;;11.22;52.99;102067.00;5181298;28;20022;-79
2021/04/15 09:37:24;;;;;;;5.55;2.22;;;;;;;11.03;53.36;102062.91;5181924;28;20030;-80
2021/04/15 09:40:03;;;;;;;5.70;2.53;;;;;;;10.72;55.75;102059.84;5180082;28;20113;-82
2021/04/15 09:42:59;;;;;;;7.53;2.70;;;;;;;11.15;54.95;102062.75;5187531;28;20029;-80
2021/04/15 09:45:51;;;;;;;4.97;2.40;;;;;;;10.53;55.18;102059.19;5182404;28;20538;-81
2021/04/15 09:48:54;;;;;;;6.43;2.60;;;;;;;10.60;56.72;102060.00;5184703;28;20049;-81
2021/04/15 09:51:39;;;;;;;4.82;2.22;;;;;;;11.02;57.36;102058.56;5176068;28;20034;-80
2021/04/15 09:54:39;;;;;;;8.17;2.43;;;;;;;10.91;56.68;102056.13;5185800;28;20026;-80
2021/04/15 09:57:49;;;;;;;6.00;2.70;;;;;;;9.68;59.25;102053.06;5181125;28;20025;-81
2021/04/15 10:00:42;;;;;;;7.28;2.70;;;;;;;10.43;58.92;102052.38;5179591;28;20050;-79
2021/04/15 10:03:50;;;;;;;8.30;3.30;;;;;;;10.76;58.22;102048.47;5177160;28;20101;-84
2021/04/15 10:06:42;;;;;;;7.38;3.05;;;;;;;10.61;57.12;102040.81;5177502;28;20096;-83
2021/04/15 10:09:24;;;;;;;21.55;8.30;;;;;;;10.90;57.30;102038.69;5176885;28;20783;-81
2021/04/15 10:12:14;;;;;;;7.18;2.92;;;;;;;10.51;55.04;102031.38;5160747;28;20538;-83
2021/04/15 10:15:02;;;;;;;6.53;1.60;;;;;;;10.33;54.09;102026.34;5176450;28;20037;-82
2021/04/15 10:17:38;;;;;;;6.57;1.80;;;;;;;10.65;53.29;102024.22;5170575;28;20037;-81
2021/04/15 10:20:08;;;;;;;9.80;4.68;;;;;;;10.39;55.30;102029.75;5171236;28;20038;-81
2021/04/15 10:23:06;;;;;;;6.97;2.55;;;;;;;10.18;56.80;102034.34;5174647;28;20037;-79
2021/04/15 10:25:40;;;;;;;4.63;2.38;;;;;;;9.94;56.48;102031.94;5175711;28;20030;-79
2021/04/15 10:28:23;;;;;;;6.18;2.00;;;;;;;10.40;55.41;102023.66;5171133;28;20034;-80
2021/04/15 10:31:22;;;;;;;5.30;2.00;;;;;;;10.00;56.28;102031.91;5173415;28;20026;-78
2021/04/15 10:34:26;;;;;;;4.25;2.00;;;;;;;10.03;56.49;102022.28;5172077;28;20305;-79
2021/04/15 10:37:45;;;;;;;4.40;1.67;;;;;;;9.65;55.96;102020.91;5171796;28;20037;-79
2021/04/15 10:40:39;;;;;;;3.72;1.50;;;;;;;9.49;55.93;102027.16;5158418;28;20036;-80
2021/04/15 10:43:28;;;;;;;3.17;1.33;;;;;;;9.66;55.52;102015.66;5170556;28;20026;-80
2021/04/15 10:46:23;;;;;;;3.63;1.05;;;;;;;8.74;54.66;102025.00;5149549;28;20026;-79
2021/04/15 10:49:21;;;;;;;2.30;0.88;;;;;;;9.02;56.12;102021.38;5164173;28;20105;-79
2021/04/15 10:52:05;;;;;;;3.35;0.90;;;;;;;9.56;54.90;102021.88;5173587;28;20491;-79
2021/04/15 10:54:40;;;;;;;2.88;0.90;;;;;;;9.59;54.08;102015.72;5168939;28;20031;-79
2021/04/15 10:57:15;;;;;;;3.25;1.30;;;;;;;9.52;56.75;102019.28;5170048;28;20034;-79
2021/04/15 10:59:48;;;;;;;2.83;1.40;;;;;;;9.44;56.74;102013.25;5172766;28;20503;-78
2021/04/15 11:02:54;;;;;;;1.42;1.00;;;;;;;9.57;55.33;102010.53;5170838;28;20045;-79
2021/04/15 11:05:29;;;;;;;3.53;1.38;;;;;;;8.93;55.53;102011.00;5172617;28;20056;-79
2021/04/15 11:08:15;;;;;;;2.75;1.25;;;;;;;8.74;57.83;102009.38;5170390;28;20899;-79
2021/04/15 11:10:46;;;;;;;;;;;;;;;9.04;59.17;102014.41;5171377;28;20096;-80
2021/04/15 11:13:24;;;;;;;3.83;1.63;;;;;;;9.51;57.67;102007.97;5171712;28;20375;-79
2021/04/15 11:15:59;;;;;;;3.97;1.35;;;;;;;9.45;56.53;102007.19;5170666;28;20145;-79
2021/04/15 11:18:37;;;;;;;3.00;1.33;;;;;;;9.44;55.64;102005.41;5164166;28;20770;-79
2021/04/15 11:21:35;;;;;;;3.17;1.33;;;;;;;9.63;55.34;102004.41;5167901;28;20026;-79
2021/04/15 11:24:27;;;;;;;4.80;1.90;;;;;;;10.05;56.38;101994.44;5157191;28;20516;-80
2021/04/15 11:27:09;;;;;;;3.70;1.75;;;;;;;9.98;55.82;101989.25;5170996;28;20623;-80
2021/04/15 11:29:44;;;;;;;3.75;1.60;;;;;;;10.04;54.88;101989.22;5174469;28;20034;-80
2021/04/15 11:32:23;;;;;;;;;;;;;;;9.86;56.00;101984.16;5174689;28;20024;-80
2021/04/15 11:35:11;;;;;;;4.32;1.40;;;;;;;9.96;56.67;101973.59;5172963;28;19917;-80
2021/04/15 11:37:45;;;;;;;2.03;1.13;;;;;;;9.60;54.56;101992.25;5171617;28;20026;-80
2021/04/15 11:40:23;;;;;;;6.15;1.55;;;;;;;9.27;54.72;101989.03;5173304;28;20025;-80
2021/04/15 11:42:54;;;;;;;2.78;1.20;;;;;;;9.16;56.41;101985.66;5172589;28;20025;-80
2021/04/15 11:45:35;;;;;;;2.65;1.27;;;;;;;9.43;56.53;101990.63;5173295;28;20113;-80
2021/04/15 11:48:28;;;;;;;2.75;1.30;;;;;;;9.29;56.40;101979.47;5169206;28;20022;-80
2021/04/15 11:51:22;;;;;;;5.55;1.33;;;;;;;9.33;54.83;101991.63;5170697;28;20018;-79
2021/04/15 11:53:54;;;;;;;5.00;1.60;;;;;;;9.30;54.75;101976.84;5165877;28;20117;-80
2021/04/15 11:56:32;;;;;;;4.10;1.30;;;;;;;9.37;55.27;101980.25;5180922;28;20030;-80
2021/04/15 11:59:28;;;;;;;3.85;1.20;;;;;;;9.38;55.09;101984.59;5175883;28;20041;-79
2021/04/15 12:02:28;;;;;;;2.33;1.27;;;;;;;9.30;56.34;101983.81;5162314;28;20456;-80
2021/04/15 12:05:10;;;;;;;2.80;1.40;;;;;;;9.29;56.92;101979.47;5172768;28;20041;-80
2021/04/15 12:08:17;;;;;;;2.42;1.20;;;;;;;9.36;57.35;101983.75;5171096;28;20510;-79
2021/04/15 12:11:19;;;;;;;3.45;1.50;;;;;;;9.57;57.98;101988.78;5169746;28;20097;-80
2021/04/15 12:13:55;;;;;;;4.32;1.30;;;;;;;9.52;57.80;101982.75;5172101;28;20419;-80
2021/04/15 12:17:00;;;;;;;9.68;4.68;;;;;;;9.23;58.03;101984.72;5172304;28;20042;-80
2021/04/15 12:19:56;;;;;;;7.40;2.05;;;;;;;9.40;57.25;101973.28;5176230;28;20030;-79
2021/04/15 12:22:34;;;;;;;5.20;1.88;;;;;;;9.27;56.18;101976.88;5167527;28;20034;-79
2021/04/15 12:25:26;;;;;;;12.93;5.38;;;;;;;9.25;56.91;101981.22;5179261;28;20112;-79
2021/04/15 12:28:23;;;;;;;4.38;1.20;;;;;;;9.19;56.94;101983.91;5169694;28;20543;-79
2021/04/15 12:31:04;;;;;;;5.07;1.40;;;;;;;9.25;56.36;101980.34;5159961;28;20038;-79
2021/04/15 12:33:46;;;;;;;4.22;1.48;;;;;;;9.10;57.34;101982.22;5168870;28;20029;-79
2021/04/15 12:36:28;;;;;;;3.05;1.30;;;;;;;9.04;58.25;101985.72;5169313;28;20038;-79
2021/04/15 12:39:04;;;;;;;3.90;1.70;;;;;;;8.87;56.90;101974.53;5169661;28;20728;-78
2021/04/15 12:41:36;;;;;;;;;;;;;;;9.03;57.73;101984.00;5172321;28;20034;-79
2021/04/15 12:44:16;;;;;;;4.32;1.55;;;;;;;8.89;58.53;101983.22;5169182;28;19949;-79